Time;durP1;ratioP1;P1;durP2;ratioP2;P2;SDS_P1;SDS_P2;PMS_P1;PMS_P2;Temp;Humidity;BMP_temperature;BMP_pressure;BME280_temperature;BME280_humidity;BME280_pressure;Samples;Min_cycle;Max_cycle;Signal;HPM_P1;HPM_P2
2023/01/01 00:01:51;;;;;;;47.67;24.30;;;15.00;99.90;;;;;;4168829;28;20234;-80
2023/01/01 00:03:54;;;;;;;33.50;18.67;;;15.00;99.90;;;;;;4174313;28;20229;-79
2023/01/01 00:05:56;;;;;;;36.50;18.90;;;15.00;99.90;;;;;;4169609;28;20261;-78
2023/01/01 00:07:58;;;;;;;33.27;17.27;;;15.00;99.90;;;;;;4174538;28;20212;-79
2023/01/01 00:12:20;;;;;;;29.83;15.03;;;15.00;99.90;;;;;;4175808;28;20281;-79
2023/01/01 00:14:24;;;;;;;28.50;14.60;;;15.00;99.90;;;;;;4177610;28;20203;-79
2023/01/01 00:16:26;;;;;;;22.50;12.80;;;15.00;99.90;;;;;;4175823;28;20205;-79
2023/01/01 00:18:27;;;;;;;22.17;11.97;;;15.10;99.90;;;;;;4178540;28;20244;-80
2023/01/01 00:20:29;;;;;;;19.97;10.90;;;15.10;99.90;;;;;;4176778;28;20212;-79
2023/01/01 00:22:31;;;;;;;17.97;8.90;;;15.00;99.90;;;;;;4183881;28;20199;-80
2023/01/01 00:24:33;;;;;;;16.80;7.57;;;15.10;99.90;;;;;;4169492;28;20227;-79
2023/01/01 00:26:35;;;;;;;10.83;6.70;;;15.10;99.90;;;;;;4182653;28;20213;-79
2023/01/01 00:28:37;;;;;;;10.27;6.33;;;15.10;99.90;;;;;;4182108;28;20284;-79
2023/01/01 00:30:43;;;;;;;11.23;6.10;;;15.10;99.90;;;;;;4181435;28;20224;-79
2023/01/01 00:32:45;;;;;;;11.37;5.70;;;15.20;99.90;;;;;;4181970;28;20629;-79
2023/01/01 00:34:47;;;;;;;9.23;5.07;;;15.20;99.90;;;;;;4185107;28;20211;-79
2023/01/01 00:36:49;;;;;;;8.00;4.43;;;15.20;99.90;;;;;;4161785;28;20586;-80
2023/01/01 00:38:51;;;;;;;9.93;5.17;;;15.30;99.90;;;;;;4178527;28;20312;-79
2023/01/01 00:40:53;;;;;;;11.30;5.30;;;15.30;99.90;;;;;;4178833;28;20573;-80
2023/01/01 00:42:55;;;;;;;12.53;4.67;;;15.30;99.90;;;;;;4177115;28;20229;-80
2023/01/01 00:44:57;;;;;;;9.20;5.33;;;15.40;99.90;;;;;;4149888;28;20253;-80
2023/01/01 00:47:00;;;;;;;13.03;4.47;;;15.30;99.90;;;;;;4166041;28;20209;-80
2023/01/01 00:49:02;;;;;;;9.07;4.37;;;15.30;99.90;;;;;;4169012;28;20223;-79
2023/01/01 00:51:05;;;;;;;9.37;4.47;;;15.30;99.90;;;;;;4169184;28;20211;-79
2023/01/01 00:53:07;;;;;;;9.10;4.37;;;15.40;99.90;;;;;;4166519;28;20281;-80
2023/01/01 00:55:10;;;;;;;7.97;3.90;;;15.30;99.90;;;;;;4169202;28;20241;-80
2023/01/01 00:57:12;;;;;;;9.03;3.43;;;15.30;99.90;;;;;;4169029;28;20220;-79
2023/01/01 00:59:14;;;;;;;7.70;3.57;;;15.40;99.90;;;;;;4167312;28;20305;-80
2023/01/01 01:01:21;;;;;;;5.80;2.77;;;15.40;99.90;;;;;;4166514;28;20252;-79
2023/01/01 01:03:28;;;;;;;5.23;3.00;;;15.40;99.90;;;;;;4169296;28;20198;-80
2023/01/01 01:05:30;;;;;;;8.13;3.53;;;15.30;99.90;;;;;;4157766;28;20213;-79
2023/01/01 01:07:34;;;;;;;10.03;3.73;;;15.30;99.90;;;;;;4155387;28;20215;-80
2023/01/01 01:09:36;;;;;;;9.73;3.90;;;15.30;99.90;;;;;;4172459;28;20292;-79
2023/01/01 01:11:38;;;;;;;5.80;3.10;;;15.30;99.90;;;;;;4171162;28;20202;-79
2023/01/01 01:13:42;;;;;;;9.23;3.10;;;15.20;99.90;;;;;;4162211;28;20253;-79
2023/01/01 01:15:43;;;;;;;6.43;3.40;;;15.20;99.90;;;;;;4175073;28;20239;-79
2023/01/01 01:17:46;;;;;;;6.27;3.10;;;15.20;99.90;;;;;;4179078;28;20301;-79
2023/01/01 01:19:49;;;;;;;12.10;4.10;;;15.10;99.90;;;;;;4153071;28;20234;-80
2023/01/01 01:21:51;;;;;;;8.37;3.80;;;15.10;99.90;;;;;;4170633;28;20221;-79
2023/01/01 01:23:53;;;;;;;8.53;3.63;;;15.00;99.90;;;;;;4178749;28;20207;-80
2023/01/01 01:26:05;;;;;;;9.67;2.97;;;15.00;99.90;;;;;;4159970;28;20234;-79
2023/01/01 01:28:07;;;;;;;6.90;3.13;;;15.00;99.90;;;;;;4176572;28;20213;-79
2023/01/01 01:30:10;;;;;;;4.97;2.87;;;14.90;99.90;;;;;;4173525;28;20210;-79
2023/01/01 01:32:12;;;;;;;7.80;3.00;;;14.90;99.90;;;;;;4163735;28;20213;-79
2023/01/01 01:34:16;;;;;;;6.13;2.83;;;14.90;99.90;;;;;;4175289;28;20297;-80
2023/01/01 01:36:20;;;;;;;5.67;3.27;;;14.80;99.90;;;;;;4174547;28;20247;-79
2023/01/01 01:38:22;;;;;;;7.07;2.67;;;14.80;99.90;;;;;;4171239;28;20234;-80
2023/01/01 01:40:24;;;;;;;5.13;2.80;;;14.80;99.90;;;;;;4173208;28;20205;-79
2023/01/01 01:42:26;;;;;;;6.53;2.80;;;14.80;99.90;;;;;;4178837;28;20575;-79
2023/01/01 01:44:55;;;;;;;6.47;2.90;;;14.80;99.90;;;;;;4175588;28;20304;-79
2023/01/01 01:46:59;;;;;;;6.10;2.83;;;14.80;99.90;;;;;;4176789;28;20256;-79
2023/01/01 01:49:04;;;;;;;8.97;3.23;;;14.70;99.90;;;;;;4175300;28;20298;-79
2023/01/01 01:51:07;;;;;;;6.50;3.30;;;14.70;99.90;;;;;;4171219;28;20331;-79
2023/01/01 01:53:15;;;;;;;8.87;3.90;;;14.80;99.90;;;;;;4175756;28;20562;-80
2023/01/01 01:55:17;;;;;;;7.47;3.60;;;14.80;99.90;;;;;;4166031;28;20262;-79
2023/01/01 01:57:19;;;;;;;8.83;4.00;;;14.80;99.90;;;;;;4175709;28;20302;-80
2023/01/01 01:59:24;;;;;;;9.87;3.63;;;14.90;99.90;;;;;;4165407;28;20229;-79
2023/01/01 02:01:27;;;;;;;6.60;3.67;;;14.80;99.90;;;;;;4172371;28;20813;-79
2023/01/01 02:03:33;;;;;;;8.83;3.80;;;14.90;99.90;;;;;;4168421;28;20216;-80
2023/01/01 02:05:36;;;;;;;6.53;3.50;;;14.90;99.90;;;;;;4172118;28;20221;-79
2023/01/01 02:07:38;;;;;;;11.70;3.40;;;14.90;99.90;;;;;;4171248;28;20230;-79
2023/01/01 02:09:42;;;;;;;7.57;3.10;;;15.00;99.90;;;;;;4172906;28;20235;-79
2023/01/01 02:11:44;;;;;;;6.17;2.80;;;14.90;99.90;;;;;;4171710;28;20625;-80
2023/01/01 02:13:46;;;;;;;6.47;3.00;;;14.80;99.90;;;;;;4166939;28;20209;-79
2023/01/01 02:15:54;;;;;;;6.27;3.30;;;14.80;99.90;;;;;;4171512;28;20217;-79
2023/01/01 02:18:01;;;;;;;5.20;3.00;;;14.80;99.90;;;;;;4173044;28;20224;-79
2023/01/01 02:20:21;;;;;;;6.53;2.60;;;14.80;99.90;;;;;;4179380;28;20225;-79
2023/01/01 02:22:31;;;;;;;8.60;3.00;;;14.80;99.90;;;;;;4172194;28;20669;-80
2023/01/01 02:25:04;;;;;;;5.03;2.87;;;14.80;99.90;;;;;;4172503;28;20250;-79
2023/01/01 02:27:14;;;;;;;9.60;3.10;;;14.70;99.90;;;;;;4171909;28;20288;-79
2023/01/01 02:29:30;;;;;;;5.53;2.80;;;14.70;99.90;;;;;;4171214;28;20750;-79
2023/01/01 02:31:37;;;;;;;6.30;2.73;;;14.70;99.90;;;;;;4171590;28;20559;-79
2023/01/01 02:33:41;;;;;;;7.53;2.33;;;14.70;99.90;;;;;;4169542;28;20207;-79
2023/01/01 02:35:48;;;;;;;7.30;2.67;;;14.70;99.90;;;;;;4175019;28;20689;-79
2023/01/01 02:37:55;;;;;;;4.20;2.60;;;14.70;99.90;;;;;;4175469;28;20302;-79
2023/01/01 02:39:59;;;;;;;4.53;2.50;;;14.70;99.90;;;;;;4177589;28;20694;-81
2023/01/01 02:42:03;;;;;;;6.50;2.40;;;14.70;99.90;;;;;;4176901;28;20231;-79
2023/01/01 02:44:05;;;;;;;4.33;2.50;;;14.70;99.90;;;;;;4172598;28;20329;-79
2023/01/01 02:46:11;;;;;;;5.40;2.63;;;14.60;99.90;;;;;;4167904;28;20262;-79
2023/01/01 02:48:38;;;;;;;5.47;2.40;;;14.60;99.90;;;;;;4170335;28;20212;-79
2023/01/01 02:50:39;;;;;;;5.63;2.27;;;14.60;99.90;;;;;;4172224;28;20208;-79
2023/01/01 02:53:01;;;;;;;5.50;2.70;;;14.60;99.90;;;;;;4173766;28;20308;-79
2023/01/01 02:55:14;;;;;;;7.07;2.60;;;14.50;99.90;;;;;;4177040;28;20220;-79
2023/01/01 02:57:27;;;;;;;5.43;2.33;;;14.50;99.90;;;;;;4167223;28;20209;-79
2023/01/01 03:02:03;;;;;;;7.47;2.50;;;14.50;99.90;;;;;;4177491;28;20209;-79
2023/01/01 03:04:17;;;;;;;5.30;2.77;;;14.40;99.90;;;;;;4168982;28;20234;-79
2023/01/01 03:06:26;;;;;;;6.70;2.23;;;14.40;99.90;;;;;;4167665;28;20224;-79
2023/01/01 03:08:36;;;;;;;4.67;2.33;;;14.40;99.90;;;;;;4169780;28;20229;-79
2023/01/01 03:10:43;;;;;;;4.90;2.57;;;14.30;99.90;;;;;;4168146;28;20255;-79
2023/01/01 03:12:51;;;;;;;5.63;2.60;;;14.30;99.90;;;;;;4172505;28;20236;-79
2023/01/01 03:14:57;;;;;;;4.23;2.47;;;14.30;99.90;;;;;;4176355;28;20726;-79
2023/01/01 03:17:04;;;;;;;3.50;2.10;;;14.20;99.90;;;;;;4167987;28;20205;-80
2023/01/01 03:19:12;;;;;;;5.17;2.77;;;14.20;99.90;;;;;;4172755;28;20610;-79
2023/01/01 03:21:17;;;;;;;3.90;2.20;;;14.10;99.90;;;;;;4172800;28;20201;-79
2023/01/01 03:23:25;;;;;;;6.10;2.50;;;14.10;99.90;;;;;;4179838;28;20206;-80
2023/01/01 03:25:32;;;;;;;5.37;2.37;;;14.10;99.90;;;;;;4175770;28;20295;-79
2023/01/01 03:27:41;;;;;;;5.17;2.40;;;14.00;99.90;;;;;;4172643;28;20214;-79
2023/01/01 03:29:45;;;;;;;5.97;2.53;;;14.00;99.90;;;;;;4157791;28;20695;-79
2023/01/01 03:31:50;;;;;;;6.00;2.57;;;14.00;99.90;;;;;;4170031;28;20239;-79
2023/01/01 03:34:01;;;;;;;5.03;2.67;;;13.90;99.90;;;;;;4172448;28;20212;-79
2023/01/01 03:36:09;;;;;;;7.07;3.40;;;13.90;99.90;;;;;;4155671;28;20207;-79
2023/01/01 03:38:17;;;;;;;5.73;2.90;;;13.90;99.90;;;;;;4165814;28;20234;-79
2023/01/01 03:40:21;;;;;;;6.10;2.83;;;13.90;99.90;;;;;;4166761;28;20247;-79
2023/01/01 03:42:31;;;;;;;8.80;3.37;;;13.80;99.90;;;;;;4173038;28;20212;-79
2023/01/01 03:44:35;;;;;;;5.83;3.10;;;13.80;99.90;;;;;;4174586;28;20198;-79
2023/01/01 03:46:38;;;;;;;8.30;3.37;;;13.80;99.90;;;;;;4171400;28;20261;-79
2023/01/01 03:51:07;;;;;;;6.47;3.20;;;13.70;99.90;;;;;;4167782;28;20699;-79
2023/01/01 03:53:19;;;;;;;7.63;3.13;;;13.70;99.90;;;;;;4171478;28;20241;-79
2023/01/01 03:55:28;;;;;;;6.37;3.20;;;13.70;99.90;;;;;;4173307;28;20204;-79
2023/01/01 03:57:37;;;;;;;6.77;3.27;;;13.70;99.90;;;;;;4168372;28;20207;-79
2023/01/01 03:59:45;;;;;;;6.10;3.40;;;13.70;99.90;;;;;;4174564;28;20259;-79
2023/01/01 04:01:51;;;;;;;6.13;3.30;;;13.70;99.90;;;;;;4170601;28;20233;-79
2023/01/01 04:03:54;;;;;;;5.13;3.10;;;13.70;99.90;;;;;;4176204;28;20202;-80
2023/01/01 04:05:58;;;;;;;7.60;3.40;;;13.70;99.90;;;;;;4168664;28;20211;-79
2023/01/01 04:08:02;;;;;;;6.13;3.30;;;13.70;99.90;;;;;;4174343;28;20246;-79
2023/01/01 04:10:16;;;;;;;7.43;3.63;;;13.70;99.90;;;;;;4178889;28;20635;-78
2023/01/01 04:12:18;;;;;;;6.53;3.13;;;13.70;99.90;;;;;;4170379;28;20641;-79
2023/01/01 04:14:28;;;;;;;8.03;3.50;;;13.70;99.90;;;;;;4169183;28;20809;-79
2023/01/01 04:16:30;;;;;;;6.13;3.50;;;13.70;99.90;;;;;;4176328;28;20225;-84
2023/01/01 04:18:32;;;;;;;8.07;3.87;;;13.70;99.90;;;;;;4175760;28;20215;-80
2023/01/01 04:20:34;;;;;;;8.27;3.67;;;13.60;99.90;;;;;;4178282;28;20199;-79
2023/01/01 04:22:37;;;;;;;8.60;3.80;;;13.60;99.90;;;;;;4157043;28;20306;-79
2023/01/01 04:24:39;;;;;;;5.80;3.60;;;13.70;99.90;;;;;;4170714;28;20661;-80
2023/01/01 04:26:41;;;;;;;11.37;3.70;;;13.70;99.90;;;;;;4176110;28;21089;-80
2023/01/01 04:28:43;;;;;;;7.27;3.47;;;13.60;99.90;;;;;;4175409;28;20230;-80
2023/01/01 04:30:45;;;;;;;6.93;3.47;;;13.60;99.90;;;;;;4170616;28;20737;-81
2023/01/01 04:32:47;;;;;;;6.77;3.47;;;13.70;99.90;;;;;;4171405;28;20290;-80
2023/01/01 04:34:49;;;;;;;7.90;3.50;;;13.70;99.90;;;;;;4173699;28;20207;-79
2023/01/01 04:36:51;;;;;;;8.13;3.43;;;13.70;99.90;;;;;;4173037;28;20199;-79
2023/01/01 04:38:55;;;;;;;6.87;3.67;;;13.60;99.90;;;;;;4173284;28;21554;-79
2023/01/01 04:41:00;;;;;;;7.23;3.50;;;13.60;99.90;;;;;;4156693;28;20235;-79
2023/01/01 04:43:02;;;;;;;6.77;3.80;;;13.60;99.90;;;;;;4178119;28;20237;-79
2023/01/01 04:45:04;;;;;;;6.57;3.43;;;13.60;99.90;;;;;;4170329;28;20915;-79
2023/01/01 04:47:07;;;;;;;6.90;3.53;;;13.60;99.90;;;;;;4171351;28;20285;-77
2023/01/01 04:49:09;;;;;;;7.87;3.50;;;13.60;99.90;;;;;;4171816;28;20210;-81
2023/01/01 04:51:13;;;;;;;8.77;3.80;;;13.60;99.90;;;;;;4170764;28;20196;-80
2023/01/01 04:53:15;;;;;;;9.10;3.50;;;13.60;99.90;;;;;;4170117;28;20257;-80
2023/01/01 04:55:19;;;;;;;8.87;3.50;;;13.60;99.90;;;;;;4171086;28;20207;-80
2023/01/01 04:57:21;;;;;;;6.17;3.27;;;13.60;99.90;;;;;;4170950;28;20211;-80
2023/01/01 04:59:23;;;;;;;12.07;4.17;;;13.60;99.90;;;;;;4155513;28;20761;-80
2023/01/01 05:01:26;;;;;;;7.10;3.13;;;13.60;99.90;;;;;;4171384;28;20204;-80
2023/01/01 05:03:28;;;;;;;8.93;3.10;;;13.50;99.90;;;;;;4176037;28;20355;-79
2023/01/01 05:05:30;;;;;;;5.07;3.37;;;13.50;99.90;;;;;;4175107;28;20210;-79
2023/01/01 05:07:33;;;;;;;4.97;2.93;;;13.50;99.90;;;;;;4175099;28;20203;-79
2023/01/01 05:09:36;;;;;;;7.33;3.40;;;13.50;99.90;;;;;;4174210;28;20242;-79
2023/01/01 05:11:39;;;;;;;5.07;3.27;;;13.50;99.90;;;;;;4168133;28;20226;-79
2023/01/01 05:13:43;;;;;;;6.23;3.13;;;13.50;99.90;;;;;;4175634;28;20549;-80
2023/01/01 05:15:45;;;;;;;7.87;3.73;;;13.40;99.90;;;;;;4173802;28;20211;-79
2023/01/01 05:17:46;;;;;;;12.13;3.70;;;13.40;99.90;;;;;;4181071;28;20234;-79
2023/01/01 05:19:48;;;;;;;10.27;3.70;;;13.40;99.90;;;;;;4173409;28;20262;-79
2023/01/01 05:21:50;;;;;;;7.47;3.27;;;13.40;99.90;;;;;;4178696;28;20236;-79
2023/01/01 05:23:55;;;;;;;5.07;2.90;;;13.30;99.90;;;;;;4175030;28;20298;-79
2023/01/01 05:25:57;;;;;;;5.87;3.47;;;13.40;99.90;;;;;;4181192;28;20294;-79
2023/01/01 05:28:00;;;;;;;8.10;3.30;;;13.30;99.90;;;;;;4173123;28;20568;-80
2023/01/01 05:30:02;;;;;;;5.60;3.43;;;13.30;99.90;;;;;;4176402;28;20277;-79
2023/01/01 05:32:04;;;;;;;6.93;3.33;;;13.30;99.90;;;;;;4182604;28;20244;-80
2023/01/01 05:34:06;;;;;;;8.30;2.93;;;13.30;99.90;;;;;;4180919;28;20236;-79
2023/01/01 05:36:13;;;;;;;6.73;3.20;;;13.30;99.90;;;;;;4185586;28;20233;-79
2023/01/01 05:38:15;;;;;;;6.73;3.47;;;13.30;99.90;;;;;;4181084;28;20221;-80
2023/01/01 05:40:17;;;;;;;5.47;3.03;;;13.30;99.90;;;;;;4161157;28;20251;-79
2023/01/01 05:42:19;;;;;;;7.77;2.93;;;13.20;99.90;;;;;;4179379;28;20241;-79
2023/01/01 05:44:23;;;;;;;5.70;2.90;;;13.20;99.90;;;;;;4163017;28;20214;-78
2023/01/01 05:46:25;;;;;;;6.33;3.20;;;13.20;99.90;;;;;;4163456;28;20245;-78
2023/01/01 05:48:27;;;;;;;4.97;2.90;;;13.20;99.90;;;;;;4180531;28;20234;-78
2023/01/01 05:50:29;;;;;;;5.93;3.27;;;13.10;99.90;;;;;;4184635;28;20206;-79
2023/01/01 05:52:31;;;;;;;7.83;2.93;;;13.10;99.90;;;;;;4180935;28;20238;-78
2023/01/01 05:54:33;;;;;;;6.43;2.93;;;13.10;99.90;;;;;;4174873;28;20238;-78
2023/01/01 05:56:35;;;;;;;5.70;2.90;;;13.10;99.90;;;;;;4175628;28;20285;-78
2023/01/01 05:58:37;;;;;;;7.27;3.40;;;13.10;99.90;;;;;;4173825;28;20711;-78
2023/01/01 06:00:40;;;;;;;5.80;3.30;;;13.10;99.90;;;;;;4175471;28;20220;-78
2023/01/01 06:02:42;;;;;;;4.27;2.80;;;13.10;99.90;;;;;;4168295;28;20264;-79
2023/01/01 06:04:44;;;;;;;4.47;2.63;;;13.10;99.90;;;;;;4179334;28;20276;-79
2023/01/01 06:06:46;;;;;;;7.77;3.00;;;13.10;99.90;;;;;;4181383;28;20252;-79
2023/01/01 06:08:52;;;;;;;5.10;2.50;;;13.10;99.90;;;;;;4170195;28;20920;-78
2023/01/01 06:10:58;;;;;;;11.13;2.83;;;13.10;99.90;;;;;;4172717;28;20759;-78
2023/01/01 06:13:00;;;;;;;6.20;3.00;;;13.10;99.90;;;;;;4180440;28;20230;-78
2023/01/01 06:15:02;;;;;;;5.23;2.80;;;13.10;99.90;;;;;;4174430;28;20305;-78
2023/01/01 06:17:05;;;;;;;7.90;3.33;;;13.10;99.90;;;;;;4176175;28;20684;-78
2023/01/01 06:19:07;;;;;;;4.80;2.90;;;13.00;99.90;;;;;;4166553;28;20697;-78
2023/01/01 06:21:11;;;;;;;5.57;2.90;;;13.10;99.90;;;;;;4173646;28;20711;-78
2023/01/01 06:23:13;;;;;;;6.37;3.33;;;13.10;99.90;;;;;;4171191;28;20206;-79
2023/01/01 06:25:15;;;;;;;7.27;2.90;;;13.10;99.90;;;;;;4149849;28;20211;-78
2023/01/01 06:27:17;;;;;;;6.00;3.20;;;13.10;99.90;;;;;;4173247;28;20443;-78
2023/01/01 06:29:19;;;;;;;5.73;3.30;;;13.10;99.90;;;;;;4174206;28;20222;-78
2023/01/01 06:31:22;;;;;;;5.70;2.80;;;13.10;99.90;;;;;;4167375;28;20569;-78
2023/01/01 06:33:25;;;;;;;4.77;2.60;;;13.10;99.90;;;;;;4173543;28;20692;-78
2023/01/01 06:35:27;;;;;;;6.03;2.67;;;13.10;99.90;;;;;;4177778;28;20357;-78
2023/01/01 06:37:29;;;;;;;6.10;2.83;;;13.10;99.90;;;;;;4173833;28;20225;-78
2023/01/01 06:39:31;;;;;;;7.27;2.60;;;13.20;99.90;;;;;;4162067;28;20235;-78
2023/01/01 06:41:33;;;;;;;5.13;2.70;;;13.20;99.90;;;;;;4176500;28;20659;-79
2023/01/01 06:43:35;;;;;;;6.57;2.93;;;13.20;99.90;;;;;;4179215;28;20639;-78
2023/01/01 06:45:37;;;;;;;5.60;2.60;;;13.20;99.90;;;;;;4163201;28;20199;-78
2023/01/01 06:47:39;;;;;;;6.00;3.00;;;13.20;99.90;;;;;;4170925;28;20233;-78
2023/01/01 06:49:43;;;;;;;5.23;2.80;;;13.20;99.90;;;;;;4166453;28;20232;-76
2023/01/01 06:51:44;;;;;;;9.47;2.90;;;13.20;99.90;;;;;;4172087;28;20684;-78
2023/01/01 06:53:47;;;;;;;3.87;2.20;;;13.20;99.90;;;;;;4172874;28;20641;-79
2023/01/01 06:55:49;;;;;;;5.10;2.70;;;13.20;99.90;;;;;;4175431;28;20588;-78
2023/01/01 06:57:52;;;;;;;5.03;2.90;;;13.30;99.90;;;;;;4174870;28;20285;-78
2023/01/01 06:59:54;;;;;;;6.10;2.63;;;13.30;99.90;;;;;;4161621;28;20760;-78
2023/01/01 07:01:56;;;;;;;6.03;2.67;;;13.30;99.90;;;;;;4172000;28;20209;-78
2023/01/01 07:03:59;;;;;;;6.10;3.20;;;13.30;99.90;;;;;;4169733;28;20238;-79
2023/01/01 07:06:02;;;;;;;7.40;3.83;;;13.30;99.90;;;;;;4168249;28;20286;-78
2023/01/01 07:08:05;;;;;;;5.27;2.53;;;13.30;99.90;;;;;;4171233;28;20231;-79
2023/01/01 07:10:08;;;;;;;6.97;2.63;;;13.30;99.90;;;;;;4170151;28;20577;-79
2023/01/01 07:12:10;;;;;;;7.97;2.90;;;13.30;99.90;;;;;;4174331;28;20206;-78
2023/01/01 07:14:12;;;;;;;4.37;2.30;;;13.30;99.90;;;;;;4150513;28;20243;-78
2023/01/01 07:16:14;;;;;;;5.77;2.83;;;13.30;99.90;;;;;;4170598;28;20253;-78
2023/01/01 07:18:16;;;;;;;6.13;3.00;;;13.30;99.90;;;;;;4175171;28;20219;-78
2023/01/01 07:20:18;;;;;;;5.50;2.70;;;13.30;99.90;;;;;;4169992;28;20729;-79
2023/01/01 07:22:21;;;;;;;5.60;3.00;;;13.20;99.90;;;;;;4160031;28;20289;-78
2023/01/01 07:24:23;;;;;;;6.63;2.83;;;13.30;99.90;;;;;;4152733;28;20266;-78
2023/01/01 07:26:25;;;;;;;6.63;2.90;;;13.30;99.90;;;;;;4171648;28;20263;-78
2023/01/01 07:28:28;;;;;;;6.13;3.10;;;13.30;99.90;;;;;;4156671;28;20298;-79
2023/01/01 07:30:29;;;;;;;4.73;3.00;;;13.30;99.90;;;;;;4149907;28;20654;-78
2023/01/01 07:32:31;;;;;;;7.57;2.90;;;13.30;99.90;;;;;;4172291;28;20212;-78
2023/01/01 07:34:33;;;;;;;5.47;2.83;;;13.30;99.90;;;;;;4170636;28;20202;-79
2023/01/01 07:36:35;;;;;;;6.97;3.10;;;13.30;99.90;;;;;;4171005;28;20282;-78
2023/01/01 07:38:38;;;;;;;8.67;3.27;;;13.40;99.90;;;;;;4154132;28;20236;-78
2023/01/01 07:40:41;;;;;;;7.70;3.53;;;13.40;99.90;;;;;;4168225;28;20211;-79
2023/01/01 07:42:43;;;;;;;6.33;3.00;;;13.40;99.90;;;;;;4173587;28;20206;-78
2023/01/01 07:44:44;;;;;;;8.57;3.10;;;13.40;99.90;;;;;;4172222;28;20298;-78
2023/01/01 07:46:46;;;;;;;9.43;3.57;;;13.40;99.90;;;;;;4161744;28;20290;-78
2023/01/01 07:48:48;;;;;;;8.47;3.50;;;13.50;99.90;;;;;;4174431;28;20251;-78
2023/01/01 07:50:51;;;;;;;6.53;3.23;;;13.40;99.90;;;;;;4152139;28;20300;-78
2023/01/01 07:52:53;;;;;;;5.60;3.00;;;13.50;99.90;;;;;;4171622;28;20621;-78
2023/01/01 07:54:56;;;;;;;7.97;3.37;;;13.40;99.90;;;;;;4173914;28;20211;-78
2023/01/01 07:56:58;;;;;;;8.60;3.20;;;13.40;99.90;;;;;;4150953;28;20856;-77
2023/01/01 07:59:00;;;;;;;5.97;3.07;;;13.50;99.90;;;;;;4167317;28;20231;-78
2023/01/01 08:01:02;;;;;;;5.63;3.17;;;13.50;99.90;;;;;;4171307;28;20257;-78
2023/01/01 08:03:04;;;;;;;5.90;2.90;;;13.50;99.90;;;;;;4172786;28;20218;-77
2023/01/01 08:05:07;;;;;;;7.43;3.27;;;13.50;99.90;;;;;;4171808;28;20215;-77
2023/01/01 08:07:09;;;;;;;7.97;3.40;;;13.50;99.90;;;;;;4156734;28;20311;-78
2023/01/01 08:09:13;;;;;;;5.63;3.33;;;13.50;99.90;;;;;;4174605;28;20787;-78
2023/01/01 08:11:16;;;;;;;6.70;3.50;;;13.60;99.90;;;;;;4172651;28;20207;-79
2023/01/01 08:13:21;;;;;;;7.93;3.40;;;13.50;99.90;;;;;;4172694;28;20308;-78
2023/01/01 08:15:23;;;;;;;8.97;3.43;;;13.60;99.90;;;;;;4147943;28;20247;-78
2023/01/01 08:17:25;;;;;;;7.40;3.33;;;13.60;99.90;;;;;;4165906;28;20824;-78
2023/01/01 08:19:27;;;;;;;6.37;3.10;;;13.60;99.90;;;;;;4167348;28;20319;-79
2023/01/01 08:21:29;;;;;;;7.63;3.53;;;13.60;99.90;;;;;;4171026;28;20223;-78
2023/01/01 08:23:31;;;;;;;4.63;3.23;;;13.60;99.90;;;;;;4173171;28;20681;-78
2023/01/01 08:25:33;;;;;;;7.73;3.50;;;13.60;99.90;;;;;;4171984;28;20210;-78
2023/01/01 08:27:38;;;;;;;12.73;4.60;;;13.70;99.90;;;;;;4172615;28;20222;-79
2023/01/01 08:29:40;;;;;;;6.37;3.27;;;13.70;99.90;;;;;;4167256;28;20315;-78
2023/01/01 08:31:43;;;;;;;7.60;3.70;;;13.70;99.90;;;;;;4172834;28;20263;-79
2023/01/01 08:33:44;;;;;;;8.77;3.83;;;13.70;99.90;;;;;;4153264;28;20582;-78
2023/01/01 08:35:47;;;;;;;7.50;3.87;;;13.80;99.90;;;;;;4172457;28;20208;-79
2023/01/01 08:37:48;;;;;;;7.87;3.97;;;13.80;99.90;;;;;;4170690;28;21193;-78
2023/01/01 08:39:51;;;;;;;8.37;3.50;;;13.80;99.90;;;;;;4173176;28;20679;-78
2023/01/01 08:41:52;;;;;;;8.20;3.37;;;13.80;99.90;;;;;;4154658;28;20299;-78
2023/01/01 08:43:56;;;;;;;8.93;4.23;;;13.90;99.90;;;;;;4165403;28;20288;-78
2023/01/01 08:45:57;;;;;;;8.00;3.53;;;13.90;99.90;;;;;;4163784;28;20290;-78
2023/01/01 08:47:59;;;;;;;8.00;3.70;;;13.90;99.90;;;;;;4176511;28;20248;-79
2023/01/01 08:50:03;;;;;;;6.83;3.80;;;14.00;99.90;;;;;;4167176;28;20322;-78
2023/01/01 08:52:05;;;;;;;7.50;3.60;;;14.00;99.90;;;;;;4179274;28;20286;-78
2023/01/01 08:54:07;;;;;;;8.23;3.93;;;14.00;99.90;;;;;;4177813;28;20294;-78
2023/01/01 08:56:10;;;;;;;7.07;3.77;;;14.00;99.90;;;;;;4168077;28;20277;-78
2023/01/01 08:58:12;;;;;;;9.13;4.43;;;14.10;99.90;;;;;;4169718;28;20291;-78
2023/01/01 09:00:16;;;;;;;10.07;3.90;;;14.10;99.90;;;;;;4173022;28;20256;-79
2023/01/01 09:02:18;;;;;;;9.67;4.27;;;14.20;99.90;;;;;;4173769;28;20306;-79
2023/01/01 09:04:20;;;;;;;9.90;4.33;;;14.20;99.90;;;;;;4169037;28;20299;-78
2023/01/01 09:06:22;;;;;;;8.10;4.30;;;14.30;99.90;;;;;;4169273;28;20237;-78
2023/01/01 09:08:24;;;;;;;8.33;3.90;;;14.30;99.90;;;;;;4175313;28;20228;-78
2023/01/01 09:10:26;;;;;;;9.03;3.77;;;14.40;99.90;;;;;;4168282;28;20250;-78
2023/01/01 09:12:28;;;;;;;10.07;4.17;;;14.40;99.90;;;;;;4167545;28;20289;-78
2023/01/01 09:14:30;;;;;;;10.47;4.03;;;14.40;99.90;;;;;;4176905;28;20221;-78
2023/01/01 09:16:33;;;;;;;6.67;3.83;;;14.40;99.90;;;;;;4177596;28;20211;-78
2023/01/01 09:18:35;;;;;;;8.97;4.20;;;14.40;99.90;;;;;;4158384;28;20238;-77
2023/01/01 09:20:38;;;;;;;10.00;4.27;;;14.50;99.90;;;;;;4174386;28;20250;-79
2023/01/01 09:22:40;;;;;;;7.73;4.27;;;14.50;99.90;;;;;;4177333;28;20831;-78
2023/01/01 09:24:42;;;;;;;7.43;4.10;;;14.50;99.90;;;;;;4170518;28;20220;-78
2023/01/01 09:26:45;;;;;;;7.27;3.93;;;14.60;99.90;;;;;;4167280;28;20676;-78
2023/01/01 09:28:47;;;;;;;10.60;4.30;;;14.60;99.90;;;;;;4170272;28;20789;-79
2023/01/01 09:30:49;;;;;;;5.43;3.60;;;14.70;99.90;;;;;;4166141;28;20660;-78
2023/01/01 09:32:54;;;;;;;11.10;4.70;;;14.70;99.90;;;;;;4177297;28;20925;-79
2023/01/01 09:34:56;;;;;;;7.00;3.83;;;14.70;99.90;;;;;;4179182;28;20225;-78
2023/01/01 09:37:01;;;;;;;7.87;4.03;;;14.70;99.90;;;;;;4158880;28;20668;-79
2023/01/01 09:39:03;;;;;;;8.50;4.00;;;14.80;99.90;;;;;;4173922;28;20317;-78
2023/01/01 09:41:16;;;;;;;9.87;4.60;;;14.80;99.90;;;;;;4177743;28;20254;-78
2023/01/01 09:43:26;;;;;;;7.70;4.23;;;14.80;99.90;;;;;;4177533;28;20566;-79
2023/01/01 09:45:30;;;;;;;7.10;3.80;;;14.80;99.90;;;;;;4168939;28;20715;-79
2023/01/01 09:47:38;;;;;;;9.50;4.03;;;14.90;99.90;;;;;;4169026;28;20291;-79
2023/01/01 09:49:45;;;;;;;9.47;3.80;;;14.90;99.90;;;;;;4155111;28;20231;-78
2023/01/01 09:51:53;;;;;;;10.10;4.07;;;14.90;99.90;;;;;;4175896;28;20213;-78
2023/01/01 09:54:01;;;;;;;7.20;3.30;;;14.90;99.90;;;;;;4173534;28;20640;-77
2023/01/01 09:56:04;;;;;;;6.70;3.77;;;14.90;99.90;;;;;;4177481;28;20215;-77
2023/01/01 09:58:08;;;;;;;6.80;3.73;;;15.00;99.90;;;;;;4172838;28;20202;-78
2023/01/01 10:00:16;;;;;;;7.53;3.97;;;15.00;99.90;;;;;;4180606;28;20241;-77
2023/01/01 10:02:34;;;;;;;10.93;3.73;;;15.00;99.90;;;;;;4169254;28;20218;-78
2023/01/01 10:04:53;;;;;;;6.43;3.37;;;15.00;99.90;;;;;;4170734;28;20203;-78
2023/01/01 10:07:04;;;;;;;12.77;3.83;;;15.00;99.90;;;;;;4176985;28;20229;-77
2023/01/01 10:09:14;;;;;;;7.40;3.80;;;15.00;99.90;;;;;;4172957;28;20229;-77
2023/01/01 10:11:26;;;;;;;7.80;3.60;;;15.00;99.90;;;;;;4179758;28;20740;-78
2023/01/01 10:13:34;;;;;;;10.43;4.17;;;15.00;99.90;;;;;;4177774;28;20205;-77
2023/01/01 10:15:41;;;;;;;9.77;4.00;;;15.00;99.90;;;;;;4175177;28;20283;-77
2023/01/01 10:17:46;;;;;;;10.07;3.80;;;15.00;99.90;;;;;;4173617;28;20214;-77
2023/01/01 10:19:52;;;;;;;10.23;4.13;;;15.00;99.90;;;;;;4175956;28;20229;-77
2023/01/01 10:21:59;;;;;;;8.63;3.73;;;15.00;99.90;;;;;;4178148;28;20307;-77
2023/01/01 10:24:05;;;;;;;6.33;3.77;;;15.00;99.90;;;;;;4163901;28;20241;-77
2023/01/01 10:26:13;;;;;;;9.83;4.10;;;15.00;99.90;;;;;;4171551;28;20210;-77
2023/01/01 10:28:21;;;;;;;9.27;4.23;;;15.00;99.90;;;;;;4159006;28;20207;-77
2023/01/01 10:30:24;;;;;;;9.27;3.87;;;15.00;99.90;;;;;;4170914;28;20229;-78
2023/01/01 10:32:30;;;;;;;9.83;3.93;;;15.10;99.90;;;;;;4169125;28;20833;-78
2023/01/01 10:34:33;;;;;;;11.90;4.43;;;15.10;99.90;;;;;;4149861;28;20204;-77
2023/01/01 10:36:36;;;;;;;13.60;4.23;;;15.10;99.90;;;;;;4176499;28;20720;-78
2023/01/01 10:38:39;;;;;;;11.13;4.17;;;15.10;99.90;;;;;;4179568;28;20292;-78
2023/01/01 10:40:41;;;;;;;8.03;3.97;;;15.20;99.90;;;;;;4173105;28;20260;-78
2023/01/01 10:42:48;;;;;;;8.87;3.93;;;15.20;99.90;;;;;;4159680;28;20221;-78
2023/01/01 10:44:52;;;;;;;11.03;4.03;;;15.20;99.90;;;;;;4177154;28;20281;-77
2023/01/01 10:46:57;;;;;;;7.87;3.80;;;15.20;99.90;;;;;;4169994;28;20690;-78
2023/01/01 10:49:10;;;;;;;7.63;3.80;;;15.30;99.90;;;;;;4172649;28;20231;-77
2023/01/01 10:51:19;;;;;;;8.97;3.83;;;15.30;99.90;;;;;;4162240;28;20669;-77
2023/01/01 10:53:34;;;;;;;10.03;3.97;;;15.30;99.90;;;;;;4156220;28;20234;-77